sensor_id;sensor_type;location;lat;lon;timestamp;pressure;altitude;pressure_sealevel;temperature;humidity
72548;BME280;60570;50.848;6.776;2023-11-21T00:00:23;99938.22;;;12.53;71.54
72548;BME280;60570;50.848;6.776;2023-11-21T00:01:26;99940.22;;;12.53;71.72
72548;BME280;60570;50.848;6.776;2023-11-21T00:02:27;99941.00;;;12.53;71.73
72548;BME280;60570;50.848;6.776;2023-11-21T00:03:28;99940.66;;;12.55;71.56
72548;BME280;60570;50.848;6.776;2023-11-21T00:04:30;99945.41;;;12.54;71.49
72548;BME280;60570;50.848;6.776;2023-11-21T00:05:30;99942.25;;;12.56;71.40
72548;BME280;60570;50.848;6.776;2023-11-21T00:06:32;99937.50;;;12.56;71.46
72548;BME280;60570;50.848;6.776;2023-11-21T00:07:33;99943.06;;;12.56;71.49
72548;BME280;60570;50.848;6.776;2023-11-21T00:08:36;99935.88;;;12.55;71.52
72548;BME280;60570;50.848;6.776;2023-11-21T00:09:37;99940.28;;;12.56;71.33
72548;BME280;60570;50.848;6.776;2023-11-21T00:10:38;99937.50;;;12.56;71.66
72548;BME280;60570;50.848;6.776;2023-11-21T00:11:39;99943.06;;;12.56;71.37
72548;BME280;60570;50.848;6.776;2023-11-21T00:12:41;99941.09;;;12.57;71.45
72548;BME280;60570;50.848;6.776;2023-11-21T00:13:42;99949.78;;;12.55;71.49
72548;BME280;60570;50.848;6.776;2023-11-21T00:14:44;99948.63;;;12.56;71.38
72548;BME280;60570;50.848;6.776;2023-11-21T00:15:44;99944.22;;;12.55;71.63
72548;BME280;60570;50.848;6.776;2023-11-21T00:16:46;99947.00;;;12.55;71.67
72548;BME280;60570;50.848;6.776;2023-11-21T00:17:47;99945.84;;;12.56;71.54
72548;BME280;60570;50.848;6.776;2023-11-21T00:18:48;99949.47;;;12.57;71.45
72548;BME280;60570;50.848;6.776;2023-11-21T00:19:49;99937.13;;;12.58;71.45
72548;BME280;60570;50.848;6.776;2023-11-21T00:20:50;99945.03;;;12.56;71.30
72548;BME280;60570;50.848;6.776;2023-11-21T00:21:51;99939.09;;;12.57;71.47
72548;BME280;60570;50.848;6.776;2023-11-21T00:22:52;99943.06;;;12.56;71.41
72548;BME280;60570;50.848;6.776;2023-11-21T00:23:55;99944.66;;;12.57;71.52
72548;BME280;60570;50.848;6.776;2023-11-21T00:24:56;99947.00;;;12.55;71.32
72548;BME280;60570;50.848;6.776;2023-11-21T00:25:58;99939.47;;;12.56;71.57
72548;BME280;60570;50.848;6.776;2023-11-21T00:26:58;99948.19;;;12.54;71.70
72548;BME280;60570;50.848;6.776;2023-11-21T00:28:00;99946.56;;;12.53;71.78
72548;BME280;60570;50.848;6.776;2023-11-21T00:29:01;99945.84;;;12.56;71.51
72548;BME280;60570;50.848;6.776;2023-11-21T00:30:03;99944.22;;;12.55;71.57
72548;BME280;60570;50.848;6.776;2023-11-21T00:31:06;99941.81;;;12.54;71.61
72548;BME280;60570;50.848;6.776;2023-11-21T00:32:07;99945.41;;;12.54;71.62
72548;BME280;60570;50.848;6.776;2023-11-21T00:33:09;99952.94;;;12.54;71.53
72548;BME280;60570;50.848;6.776;2023-11-21T00:34:11;99954.59;;;12.55;71.60
72548;BME280;60570;50.848;6.776;2023-11-21T00:35:12;99949.78;;;12.55;71.61
72548;BME280;60570;50.848;6.776;2023-11-21T00:36:13;99952.94;;;12.54;71.55
72548;BME280;60570;50.848;6.776;2023-11-21T00:37:15;99954.91;;;12.53;71.55
72548;BME280;60570;50.848;6.776;2023-11-21T00:38:15;99957.38;;;12.55;71.50
72548;BME280;60570;50.848;6.776;2023-11-21T00:39:21;99958.16;;;12.55;71.50
72548;BME280;60570;50.848;6.776;2023-11-21T00:40:22;99957.38;;;12.55;71.75
72548;BME280;60570;50.848;6.776;2023-11-21T00:41:23;99957.72;;;12.53;71.56
72548;BME280;60570;50.848;6.776;2023-11-21T00:42:24;99956.91;;;12.53;71.53
72548;BME280;60570;50.848;6.776;2023-11-21T00:43:26;99963.28;;;12.53;71.61
72548;BME280;60570;50.848;6.776;2023-11-21T00:44:27;99966.50;;;12.55;71.47
72548;BME280;60570;50.848;6.776;2023-11-21T00:45:28;99966.50;;;12.55;71.30
72548;BME280;60570;50.848;6.776;2023-11-21T00:46:29;99954.91;;;12.53;71.49
72548;BME280;60570;50.848;6.776;2023-11-21T00:47:30;99966.06;;;12.53;71.61
72548;BME280;60570;50.848;6.776;2023-11-21T00:48:31;99962.13;;;12.54;71.61
72548;BME280;60570;50.848;6.776;2023-11-21T00:49:32;99961.31;;;12.54;71.54
72548;BME280;60570;50.848;6.776;2023-11-21T00:50:33;99966.44;;;12.52;71.49
72548;BME280;60570;50.848;6.776;2023-11-21T00:51:34;99966.81;;;12.50;71.64
72548;BME280;60570;50.848;6.776;2023-11-21T00:52:36;99960.03;;;12.51;71.63
72548;BME280;60570;50.848;6.776;2023-11-21T00:53:37;99968.84;;;12.53;71.63
72548;BME280;60570;50.848;6.776;2023-11-21T00:54:39;99961.69;;;12.52;71.69
72548;BME280;60570;50.848;6.776;2023-11-21T00:55:40;99961.69;;;12.52;71.63
72548;BME280;60570;50.848;6.776;2023-11-21T00:56:42;99964.47;;;12.52;71.64
72548;BME280;60570;50.848;6.776;2023-11-21T00:57:43;99967.25;;;12.52;71.59
72548;BME280;60570;50.848;6.776;2023-11-21T00:58:44;99970.03;;;12.52;71.63
72548;BME280;60570;50.848;6.776;2023-11-21T00:59:50;99970.03;;;12.52;71.69
72548;BME280;60570;50.848;6.776;2023-11-21T01:00:51;99967.25;;;12.52;71.56
72548;BME280;60570;50.848;6.776;2023-11-21T01:01:53;99968.84;;;12.53;71.47
72548;BME280;60570;50.848;6.776;2023-11-21T01:02:55;99970.47;;;12.54;71.56
72548;BME280;60570;50.848;6.776;2023-11-21T01:03:56;99974.44;;;12.53;71.55
72548;BME280;60570;50.848;6.776;2023-11-21T01:04:57;99975.25;;;12.54;71.49
72548;BME280;60570;50.848;6.776;2023-11-21T01:05:58;99975.25;;;12.54;71.57
72548;BME280;60570;50.848;6.776;2023-11-21T01:07:00;99973.28;;;12.54;71.56
72548;BME280;60570;50.848;6.776;2023-11-21T01:08:00;99974.78;;;12.52;71.49
72548;BME280;60570;50.848;6.776;2023-11-21T01:09:02;99972.00;;;12.52;71.55
72548;BME280;60570;50.848;6.776;2023-11-21T01:10:09;99973.19;;;12.51;71.72
72548;BME280;60570;50.848;6.776;2023-11-21T01:11:11;99979.22;;;12.53;71.48
72548;BME280;60570;50.848;6.776;2023-11-21T01:12:12;99979.56;;;12.51;71.47
72548;BME280;60570;50.848;6.776;2023-11-21T01:13:13;99984.69;;;12.49;71.53
72548;BME280;60570;50.848;6.776;2023-11-21T01:14:16;99984.34;;;12.51;71.68
72548;BME280;60570;50.848;6.776;2023-11-21T01:15:17;99981.88;;;12.49;71.66
72548;BME280;60570;50.848;6.776;2023-11-21T01:16:19;99990.63;;;12.48;71.61
72548;BME280;60570;50.848;6.776;2023-11-21T01:17:20;99991.06;;;12.50;71.72
72548;BME280;60570;50.848;6.776;2023-11-21T01:18:22;99987.81;;;12.48;71.71
72548;BME280;60570;50.848;6.776;2023-11-21T01:19:26;99994.28;;;12.52;71.64
72548;BME280;60570;50.848;6.776;2023-11-21T01:20:26;99993.16;;;12.53;71.45
72548;BME280;60570;50.848;6.776;2023-11-21T01:21:29;99988.72;;;12.52;71.65
72548;BME280;60570;50.848;6.776;2023-11-21T01:22:30;99991.13;;;12.53;71.43
72548;BME280;60570;50.848;6.776;2023-11-21T01:23:32;99991.97;;;12.54;71.62
72548;BME280;60570;50.848;6.776;2023-11-21T01:24:33;99993.16;;;12.53;71.53
72548;BME280;60570;50.848;6.776;2023-11-21T01:25:36;99995.94;;;12.53;71.63
72548;BME280;60570;50.848;6.776;2023-11-21T01:26:37;99998.25;;;12.51;71.55
72548;BME280;60570;50.848;6.776;2023-11-21T01:27:38;99996.63;;;12.50;71.73
72548;BME280;60570;50.848;6.776;2023-11-21T01:28:39;99995.81;;;12.49;71.41
72548;BME280;60570;50.848;6.776;2023-11-21T01:29:40;100001.06;;;12.51;71.53
72548;BME280;60570;50.848;6.776;2023-11-21T01:30:41;100005.81;;;12.50;71.56
72548;BME280;60570;50.848;6.776;2023-11-21T01:31:43;99999.06;;;12.51;71.59
72548;BME280;60570;50.848;6.776;2023-11-21T01:32:43;99995.13;;;12.52;71.50
72548;BME280;60570;50.848;6.776;2023-11-21T01:33:44;99993.47;;;12.51;71.58
72548;BME280;60570;50.848;6.776;2023-11-21T01:34:47;100001.84;;;12.51;71.46
72548;BME280;60570;50.848;6.776;2023-11-21T01:35:48;100002.66;;;12.52;71.78
72548;BME280;60570;50.848;6.776;2023-11-21T01:36:49;100005.44;;;12.52;71.64
72548;BME280;60570;50.848;6.776;2023-11-21T01:37:50;100001.84;;;12.51;71.64
72548;BME280;60570;50.848;6.776;2023-11-21T01:38:51;100003.03;;;12.50;71.77
72548;BME280;60570;50.848;6.776;2023-11-21T01:39:52;100005.72;;;12.47;71.66
72548;BME280;60570;50.848;6.776;2023-11-21T01:40:54;100005.00;;;12.50;71.75
72548;BME280;60570;50.848;6.776;2023-11-21T01:41:56;100003.38;;;12.49;71.73
72548;BME280;60570;50.848;6.776;2023-11-21T01:42:58;100012.53;;;12.49;71.66
72548;BME280;60570;50.848;6.776;2023-11-21T01:44:00;100010.56;;;12.50;71.77
72548;BME280;60570;50.848;6.776;2023-11-21T01:45:01;100009.41;;;12.51;71.68
72548;BME280;60570;50.848;6.776;2023-11-21T01:46:05;100018.09;;;12.49;71.60
72548;BME280;60570;50.848;6.776;2023-11-21T01:47:08;100019.75;;;12.50;71.53
72548;BME280;60570;50.848;6.776;2023-11-21T01:48:09;100015.31;;;12.49;71.55
72548;BME280;60570;50.848;6.776;2023-11-21T01:49:11;100012.53;;;12.49;71.30
72548;BME280;60570;50.848;6.776;2023-11-21T01:50:15;100015.31;;;12.49;71.67
72548;BME280;60570;50.848;6.776;2023-11-21T01:51:16;100018.56;;;12.51;71.59
72548;BME280;60570;50.848;6.776;2023-11-21T01:52:19;100013.34;;;12.50;71.66
72548;BME280;60570;50.848;6.776;2023-11-21T01:53:20;100014.16;;;12.50;71.50
72548;BME280;60570;50.848;6.776;2023-11-21T01:54:21;100018.09;;;12.49;71.61
72548;BME280;60570;50.848;6.776;2023-11-21T01:55:23;100017.78;;;12.51;71.53
72548;BME280;60570;50.848;6.776;2023-11-21T01:56:25;100014.97;;;12.51;71.50
72548;BME280;60570;50.848;6.776;2023-11-21T01:57:27;100016.94;;;12.50;71.56
72548;BME280;60570;50.848;6.776;2023-11-21T01:58:28;100020.56;;;12.51;71.42
72548;BME280;60570;50.848;6.776;2023-11-21T01:59:34;100021.72;;;12.50;71.61
72548;BME280;60570;50.848;6.776;2023-11-21T02:00:34;100026.47;;;12.49;71.82
72548;BME280;60570;50.848;6.776;2023-11-21T02:01:38;100016.50;;;12.48;71.59
72548;BME280;60570;50.848;6.776;2023-11-21T02:02:39;100020.44;;;12.47;71.72
72548;BME280;60570;50.848;6.776;2023-11-21T02:03:41;100023.22;;;12.47;71.53
72548;BME280;60570;50.848;6.776;2023-11-21T02:04:41;100024.03;;;12.48;71.71
72548;BME280;60570;50.848;6.776;2023-11-21T02:05:43;100024.88;;;12.48;71.73
72548;BME280;60570;50.848;6.776;2023-11-21T02:06:44;100024.03;;;12.48;71.54
72548;BME280;60570;50.848;6.776;2023-11-21T02:07:46;100026.81;;;12.48;71.62
72548;BME280;60570;50.848;6.776;2023-11-21T02:08:48;100028.00;;;12.47;71.68
72548;BME280;60570;50.848;6.776;2023-11-21T02:09:50;100026.38;;;12.46;71.66
72548;BME280;60570;50.848;6.776;2023-11-21T02:10:52;100028.00;;;12.47;71.71
72548;BME280;60570;50.848;6.776;2023-11-21T02:11:55;100030.81;;;12.47;71.54
72548;BME280;60570;50.848;6.776;2023-11-21T02:12:55;100031.94;;;12.46;71.63
72548;BME280;60570;50.848;6.776;2023-11-21T02:13:59;100028.00;;;12.47;71.66
72548;BME280;60570;50.848;6.776;2023-11-21T02:15:02;100028.81;;;12.47;71.62
72548;BME280;60570;50.848;6.776;2023-11-21T02:16:03;100026.38;;;12.46;71.53
72548;BME280;60570;50.848;6.776;2023-11-21T02:17:06;100036.38;;;12.47;71.55
72548;BME280;60570;50.848;6.776;2023-11-21T02:18:07;100034.38;;;12.47;71.61
72548;BME280;60570;50.848;6.776;2023-11-21T02:19:11;100036.38;;;12.47;71.64
72548;BME280;60570;50.848;6.776;2023-11-21T02:20:15;100039.94;;;12.47;71.50
72548;BME280;60570;50.848;6.776;2023-11-21T02:21:16;100042.41;;;12.49;71.55
72548;BME280;60570;50.848;6.776;2023-11-21T02:22:19;100045.50;;;12.47;71.54
72548;BME280;60570;50.848;6.776;2023-11-21T02:23:21;100040.31;;;12.46;71.60
72548;BME280;60570;50.848;6.776;2023-11-21T02:24:29;100048.66;;;12.46;71.57
72548;BME280;60570;50.848;6.776;2023-11-21T02:25:30;100044.72;;;12.47;71.56
72548;BME280;60570;50.848;6.776;2023-11-21T02:26:33;100043.47;;;12.44;71.56
72548;BME280;60570;50.848;6.776;2023-11-21T02:27:34;100045.44;;;12.44;71.50
72548;BME280;60570;50.848;6.776;2023-11-21T02:28:34;100043.81;;;12.43;72.08
72548;BME280;60570;50.848;6.776;2023-11-21T02:29:36;100049.41;;;12.43;71.68
72548;BME280;60570;50.848;6.776;2023-11-21T02:30:38;100049.75;;;12.41;71.63
72548;BME280;60570;50.848;6.776;2023-11-21T02:31:40;100051.38;;;12.42;71.66
72548;BME280;60570;50.848;6.776;2023-11-21T02:32:47;100059.34;;;12.44;71.68
72548;BME280;60570;50.848;6.776;2023-11-21T02:33:49;100050.56;;;12.42;71.64
72548;BME280;60570;50.848;6.776;2023-11-21T02:34:50;100056.50;;;12.40;71.71
72548;BME280;60570;50.848;6.776;2023-11-21T02:35:52;100049.75;;;12.41;71.71
72548;BME280;60570;50.848;6.776;2023-11-21T02:36:55;100056.13;;;12.42;71.69
72548;BME280;60570;50.848;6.776;2023-11-21T02:37:58;100057.31;;;12.41;71.71
72548;BME280;60570;50.848;6.776;2023-11-21T02:38:59;100059.34;;;12.44;71.70
72548;BME280;60570;50.848;6.776;2023-11-21T02:40:01;100053.78;;;12.44;71.62
72548;BME280;60570;50.848;6.776;2023-11-21T02:41:04;100058.56;;;12.43;71.58
72548;BME280;60570;50.848;6.776;2023-11-21T02:42:06;100058.22;;;12.45;71.61
72548;BME280;60570;50.848;6.776;2023-11-21T02:43:07;100065.38;;;12.46;71.56
72548;BME280;60570;50.848;6.776;2023-11-21T02:44:09;100059.34;;;12.44;71.79
72548;BME280;60570;50.848;6.776;2023-11-21T02:45:11;100054.97;;;12.43;71.71
72548;BME280;60570;50.848;6.776;2023-11-21T02:46:13;100060.09;;;12.41;71.55
72548;BME280;60570;50.848;6.776;2023-11-21T02:47:15;100058.22;;;12.45;71.65
72548;BME280;60570;50.848;6.776;2023-11-21T02:48:15;100055.78;;;12.43;71.63
72548;BME280;60570;50.848;6.776;2023-11-21T02:49:17;100053.78;;;12.44;71.70
72548;BME280;60570;50.848;6.776;2023-11-21T02:50:17;100062.50;;;12.42;71.56
72548;BME280;60570;50.848;6.776;2023-11-21T02:51:20;100059.34;;;12.44;71.47
72548;BME280;60570;50.848;6.776;2023-11-21T02:52:21;100060.53;;;12.43;71.69
72548;BME280;60570;50.848;6.776;2023-11-21T02:53:23;100058.56;;;12.43;71.48
72548;BME280;60570;50.848;6.776;2023-11-21T02:54:26;100061.34;;;12.43;71.54
72548;BME280;60570;50.848;6.776;2023-11-21T02:55:27;100066.47;;;12.41;71.54
72548;BME280;60570;50.848;6.776;2023-11-21T02:56:28;100057.31;;;12.41;71.67
72548;BME280;60570;50.848;6.776;2023-11-21T02:57:30;100055.66;;;12.40;71.75
72548;BME280;60570;50.848;6.776;2023-11-21T02:58:30;100057.31;;;12.41;71.50
72548;BME280;60570;50.848;6.776;2023-11-21T02:59:32;100057.66;;;12.39;71.58
72548;BME280;60570;50.848;6.776;2023-11-21T03:00:33;100053.69;;;12.40;71.62
72548;BME280;60570;50.848;6.776;2023-11-21T03:01:34;100058.81;;;12.38;71.53
72548;BME280;60570;50.848;6.776;2023-11-21T03:02:35;100048.50;;;12.39;71.64
72548;BME280;60570;50.848;6.776;2023-11-21T03:03:39;100054.88;;;12.39;71.63
72548;BME280;60570;50.848;6.776;2023-11-21T03:04:40;100050.09;;;12.40;71.63
72548;BME280;60570;50.848;6.776;2023-11-21T03:05:42;100052.09;;;12.39;71.22
72548;BME280;60570;50.848;6.776;2023-11-21T03:06:43;100050.09;;;12.40;71.59
72548;BME280;60570;50.848;6.776;2023-11-21T03:07:45;100057.66;;;12.39;71.77
72548;BME280;60570;50.848;6.776;2023-11-21T03:08:46;100058.47;;;12.40;71.64
72548;BME280;60570;50.848;6.776;2023-11-21T03:09:49;100054.06;;;12.39;71.56
72548;BME280;60570;50.848;6.776;2023-11-21T03:10:50;100058.47;;;12.40;71.45
72548;BME280;60570;50.848;6.776;2023-11-21T03:11:52;100061.25;;;12.40;71.52
72548;BME280;60570;50.848;6.776;2023-11-21T03:12:53;100057.66;;;12.39;71.53
72548;BME280;60570;50.848;6.776;2023-11-21T03:13:53;100061.97;;;12.37;71.62
72548;BME280;60570;50.848;6.776;2023-11-21T03:14:55;100054.88;;;12.39;71.43
72548;BME280;60570;50.848;6.776;2023-11-21T03:15:56;100060.47;;;12.39;71.63
72548;BME280;60570;50.848;6.776;2023-11-21T03:16:58;100067.63;;;12.40;71.61
72548;BME280;60570;50.848;6.776;2023-11-21T03:17:58;100071.22;;;12.41;71.44
72548;BME280;60570;50.848;6.776;2023-11-21T03:19:00;100064.47;;;12.42;71.46
72548;BME280;60570;50.848;6.776;2023-11-21T03:20:01;100070.88;;;12.42;71.49
72548;BME280;60570;50.848;6.776;2023-11-21T03:21:02;100067.25;;;12.42;71.52
72548;BME280;60570;50.848;6.776;2023-11-21T03:22:03;100066.81;;;12.40;71.42
72548;BME280;60570;50.848;6.776;2023-11-21T03:23:04;100068.44;;;12.41;71.31
72548;BME280;60570;50.848;6.776;2023-11-21T03:24:06;100068.81;;;12.39;71.38
72548;BME280;60570;50.848;6.776;2023-11-21T03:25:09;100069.25;;;12.41;71.43
72548;BME280;60570;50.848;6.776;2023-11-21T03:26:12;100067.19;;;12.38;71.49
72548;BME280;60570;50.848;6.776;2023-11-21T03:27:13;100072.75;;;12.38;71.60
72548;BME280;60570;50.848;6.776;2023-11-21T03:28:15;100074.72;;;12.38;71.61
72548;BME280;60570;50.848;6.776;2023-11-21T03:29:15;100075.53;;;12.38;71.53
72548;BME280;60570;50.848;6.776;2023-11-21T03:30:16;100080.75;;;12.40;71.55
72548;BME280;60570;50.848;6.776;2023-11-21T03:31:18;100076.81;;;12.41;71.57
72548;BME280;60570;50.848;6.776;2023-11-21T03:32:19;100079.97;;;12.39;71.53
72548;BME280;60570;50.848;6.776;2023-11-21T03:33:20;100080.75;;;12.40;71.50
72548;BME280;60570;50.848;6.776;2023-11-21T03:34:24;100083.88;;;12.38;71.47
72548;BME280;60570;50.848;6.776;2023-11-21T03:35:25;100089.91;;;12.40;71.41
72548;BME280;60570;50.848;6.776;2023-11-21T03:36:26;100089.47;;;12.38;71.56
72548;BME280;60570;50.848;6.776;2023-11-21T03:37:27;100087.50;;;12.39;71.52
72548;BME280;60570;50.848;6.776;2023-11-21T03:38:28;100093.44;;;12.37;71.47
72548;BME280;60570;50.848;6.776;2023-11-21T03:39:29;100097.81;;;12.38;71.36
72548;BME280;60570;50.848;6.776;2023-11-21T03:40:31;100091.78;;;12.36;71.54
72548;BME280;60570;50.848;6.776;2023-11-21T03:41:33;100098.63;;;12.39;71.33
72548;BME280;60570;50.848;6.776;2023-11-21T03:42:34;100098.63;;;12.39;71.59
72548;BME280;60570;50.848;6.776;2023-11-21T03:43:36;100097.00;;;12.38;71.66
72548;BME280;60570;50.848;6.776;2023-11-21T03:44:37;100094.22;;;12.38;71.43
72548;BME280;60570;50.848;6.776;2023-11-21T03:45:38;100097.81;;;12.38;71.49
72548;BME280;60570;50.848;6.776;2023-11-21T03:46:41;100108.16;;;12.38;71.43
72548;BME280;60570;50.848;6.776;2023-11-21T03:47:42;100105.34;;;12.38;71.54
72548;BME280;60570;50.848;6.776;2023-11-21T03:48:43;100103.75;;;12.37;71.52
72548;BME280;60570;50.848;6.776;2023-11-21T03:49:44;100103.75;;;12.37;71.56
72548;BME280;60570;50.848;6.776;2023-11-21T03:50:46;100116.16;;;12.39;71.49
72548;BME280;60570;50.848;6.776;2023-11-21T03:51:48;100112.56;;;12.39;71.56
72548;BME280;60570;50.848;6.776;2023-11-21T03:52:49;100116.03;;;12.36;71.40
72548;BME280;60570;50.848;6.776;2023-11-21T03:53:50;100108.88;;;12.35;71.47
72548;BME280;60570;50.848;6.776;2023-11-21T03:54:51;100108.88;;;12.35;71.61
72548;BME280;60570;50.848;6.776;2023-11-21T03:55:54;100117.22;;;12.35;71.61
72548;BME280;60570;50.848;6.776;2023-11-21T03:56:54;100114.44;;;12.35;71.71
72548;BME280;60570;50.848;6.776;2023-11-21T03:57:56;100118.03;;;12.35;71.65
72548;BME280;60570;50.848;6.776;2023-11-21T03:58:57;100113.16;;;12.32;71.65
72548;BME280;60570;50.848;6.776;2023-11-21T03:59:59;100119.09;;;12.31;71.73
72548;BME280;60570;50.848;6.776;2023-11-21T04:01:00;100121.06;;;12.30;71.77
72548;BME280;60570;50.848;6.776;2023-11-21T04:02:01;100120.72;;;12.32;71.71
72548;BME280;60570;50.848;6.776;2023-11-21T04:03:02;100122.72;;;12.31;71.87
72548;BME280;60570;50.848;6.776;2023-11-21T04:04:05;100125.13;;;12.33;71.66
72548;BME280;60570;50.848;6.776;2023-11-21T04:05:06;100125.13;;;12.33;71.59
72548;BME280;60570;50.848;6.776;2023-11-21T04:06:08;100127.09;;;12.32;71.62
72548;BME280;60570;50.848;6.776;2023-11-21T04:07:09;100123.50;;;12.32;71.63
72548;BME280;60570;50.848;6.776;2023-11-21T04:08:11;100131.53;;;12.33;71.65
72548;BME280;60570;50.848;6.776;2023-11-21T04:09:12;100136.28;;;12.33;71.64
72548;BME280;60570;50.848;6.776;2023-11-21T04:10:13;100139.88;;;12.33;71.36
72548;BME280;60570;50.848;6.776;2023-11-21T04:11:15;100129.88;;;12.32;71.62
72548;BME280;60570;50.848;6.776;2023-11-21T04:12:17;100127.91;;;12.33;71.58
72548;BME280;60570;50.848;6.776;2023-11-21T04:13:18;100132.66;;;12.32;71.64
72548;BME280;60570;50.848;6.776;2023-11-21T04:14:20;100135.47;;;12.32;71.68
72548;BME280;60570;50.848;6.776;2023-11-21T04:15:20;100131.84;;;12.32;71.44
72548;BME280;60570;50.848;6.776;2023-11-21T04:16:22;100138.59;;;12.31;71.68
72548;BME280;60570;50.848;6.776;2023-11-21T04:17:23;100143.34;;;12.30;71.68
72548;BME280;60570;50.848;6.776;2023-11-21T04:18:23;100138.16;;;12.29;71.78
72548;BME280;60570;50.848;6.776;2023-11-21T04:19:26;100138.59;;;12.31;71.72
72548;BME280;60570;50.848;6.776;2023-11-21T04:20:26;100141.38;;;12.31;71.68
72548;BME280;60570;50.848;6.776;2023-11-21T04:21:28;100141.38;;;12.31;71.62
72548;BME280;60570;50.848;6.776;2023-11-21T04:22:29;100139.41;;;12.31;71.69
72548;BME280;60570;50.848;6.776;2023-11-21T04:23:30;100142.56;;;12.30;71.57
72548;BME280;60570;50.848;6.776;2023-11-21T04:24:32;100145.34;;;12.30;71.70
72548;BME280;60570;50.848;6.776;2023-11-21T04:25:33;100140.13;;;12.28;71.56
72548;BME280;60570;50.848;6.776;2023-11-21T04:26:36;100140.13;;;12.28;71.62
72548;BME280;60570;50.848;6.776;2023-11-21T04:27:36;100138.88;;;12.26;71.73
72548;BME280;60570;50.848;6.776;2023-11-21T04:28:38;100136.09;;;12.26;71.75
72548;BME280;60570;50.848;6.776;2023-11-21T04:29:39;100140.84;;;12.25;71.69
72548;BME280;60570;50.848;6.776;2023-11-21T04:30:41;100139.19;;;12.24;71.72
72548;BME280;60570;50.848;6.776;2023-11-21T04:31:42;100141.28;;;12.27;71.60
72548;BME280;60570;50.848;6.776;2023-11-21T04:32:44;100141.28;;;12.27;71.88
72548;BME280;60570;50.848;6.776;2023-11-21T04:33:44;100138.88;;;12.26;71.69
72548;BME280;60570;50.848;6.776;2023-11-21T04:34:45;100142.13;;;12.28;71.44
72548;BME280;60570;50.848;6.776;2023-11-21T04:35:47;100140.47;;;12.27;71.76
72548;BME280;60570;50.848;6.776;2023-11-21T04:36:49;100139.66;;;12.26;71.61
72548;BME280;60570;50.848;6.776;2023-11-21T04:37:50;100143.63;;;12.25;71.65
72548;BME280;60570;50.848;6.776;2023-11-21T04:38:51;100136.41;;;12.24;71.72
72548;BME280;60570;50.848;6.776;2023-11-21T04:39:53;100139.66;;;12.26;71.86
72548;BME280;60570;50.848;6.776;2023-11-21T04:40:54;100142.91;;;12.28;71.69
72548;BME280;60570;50.848;6.776;2023-11-21T04:41:56;100145.22;;;12.26;71.66
72548;BME280;60570;50.848;6.776;2023-11-21T04:42:58;100143.63;;;12.25;71.62
72548;BME280;60570;50.848;6.776;2023-11-21T04:43:58;100148.38;;;12.25;71.65
72548;BME280;60570;50.848;6.776;2023-11-21T04:45:01;100147.22;;;12.26;71.68
72548;BME280;60570;50.848;6.776;2023-11-21T04:46:05;100150.09;;;12.29;71.67
72548;BME280;60570;50.848;6.776;2023-11-21T04:47:07;100148.00;;;12.26;71.63
72548;BME280;60570;50.848;6.776;2023-11-21T04:48:09;100151.16;;;12.25;71.71
72548;BME280;60570;50.848;6.776;2023-11-21T04:49:10;100150.00;;;12.26;71.68
72548;BME280;60570;50.848;6.776;2023-11-21T04:50:12;100150.00;;;12.26;71.43
72548;BME280;60570;50.848;6.776;2023-11-21T04:51:12;100145.22;;;12.26;71.65
72548;BME280;60570;50.848;6.776;2023-11-21T04:52:14;100151.25;;;12.28;71.62
72548;BME280;60570;50.848;6.776;2023-11-21T04:53:15;100149.28;;;12.29;71.59
72548;BME280;60570;50.848;6.776;2023-11-21T04:54:17;100158.47;;;12.29;71.59
72548;BME280;60570;50.848;6.776;2023-11-21T04:55:17;100152.06;;;12.29;71.45
72548;BME280;60570;50.848;6.776;2023-11-21T04:56:19;100150.09;;;12.29;71.46
72548;BME280;60570;50.848;6.776;2023-11-21T04:57:22;100149.75;;;12.31;71.36
72548;BME280;60570;50.848;6.776;2023-11-21T04:58:23;100148.13;;;12.30;71.44
72548;BME280;60570;50.848;6.776;2023-11-21T04:59:24;100143.25;;;12.27;71.38
72548;BME280;60570;50.848;6.776;2023-11-21T05:00:27;100149.28;;;12.29;71.48
72548;BME280;60570;50.848;6.776;2023-11-21T05:01:28;100148.47;;;12.28;71.55
72548;BME280;60570;50.848;6.776;2023-11-21T05:02:29;100146.03;;;12.27;71.46
72548;BME280;60570;50.848;6.776;2023-11-21T05:03:31;100150.81;;;12.26;71.59
72548;BME280;60570;50.848;6.776;2023-11-21T05:04:33;100147.22;;;12.26;71.62
72548;BME280;60570;50.848;6.776;2023-11-21T05:05:34;100146.41;;;12.25;71.71
72548;BME280;60570;50.848;6.776;2023-11-21T05:06:34;100147.22;;;12.26;71.50
72548;BME280;60570;50.848;6.776;2023-11-21T05:07:36;100151.16;;;12.25;71.62
72548;BME280;60570;50.848;6.776;2023-11-21T05:08:37;100150.81;;;12.26;71.57
72548;BME280;60570;50.848;6.776;2023-11-21T05:09:41;100154.75;;;12.25;71.67
72548;BME280;60570;50.848;6.776;2023-11-21T05:10:41;100155.91;;;12.24;71.66
72548;BME280;60570;50.848;6.776;2023-11-21T05:11:42;100154.75;;;12.25;71.60
72548;BME280;60570;50.848;6.776;2023-11-21T05:12:45;100163.94;;;12.26;71.60
72548;BME280;60570;50.848;6.776;2023-11-21T05:13:46;100153.13;;;12.24;71.71
72548;BME280;60570;50.848;6.776;2023-11-21T05:14:48;100156.63;;;12.21;71.46
72548;BME280;60570;50.848;6.776;2023-11-21T05:15:49;100159.06;;;12.23;71.85
72548;BME280;60570;50.848;6.776;2023-11-21T05:16:51;100164.63;;;12.23;71.72
72548;BME280;60570;50.848;6.776;2023-11-21T05:17:52;100158.25;;;12.22;71.78
72548;BME280;60570;50.848;6.776;2023-11-21T05:18:54;100162.66;;;12.23;71.88
72548;BME280;60570;50.848;6.776;2023-11-21T05:20:00;100170.66;;;12.25;71.62
72548;BME280;60570;50.848;6.776;2023-11-21T05:21:04;100168.22;;;12.23;71.61
72548;BME280;60570;50.848;6.776;2023-11-21T05:22:05;100166.28;;;12.24;71.44
72548;BME280;60570;50.848;6.776;2023-11-21T05:23:08;100176.13;;;12.21;71.73